This is the latest recevied weather packets stored in our database for station/object K5FEP. If no packets are shown the sender has not sent any weather packets the latest 1 day(s).
| Time | Temp. | Humidity | Pressure | Rain* | Wind** | Luminosity | Snow |
|---|---|---|---|---|---|---|---|
| 1778027534 | 22.22° C | 43% | 1011.9 hPa | 0 mm | 0 m/s | 0 W/m² | - |
| 1778027229 | 22.22° C | 42% | 1011.9 hPa | 0 mm | 0.45 m/s, 279° | 0 W/m² | - |
| 1778026926 | 22.22° C | 41% | 1011.8 hPa | 0 mm | 0 m/s | 0 W/m² | - |
| 1778026622 | 22.22° C | 41% | 1011.9 hPa | 0 mm | 0 m/s | 1 W/m² | - |
| 1778026319 | 22.78° C | 41% | 1012 hPa | 0 mm | 0 m/s | 2 W/m² | - |
| 1778026016 | 22.78° C | 40% | 1011.9 hPa | 0 mm | 0 m/s | 3 W/m² | - |
| 1778025714 | 23.33° C | 39% | 1011.7 hPa | 0 mm | 0 m/s | 5 W/m² | - |
| 1778025412 | 23.89° C | 39% | 1011.5 hPa | 0 mm | 0 m/s | 7 W/m² | - |
| 1778025109 | 23.89° C | 38% | 1011.8 hPa | 0 mm | 0 m/s | 10 W/m² | - |
| 1778024805 | 24.44° C | 37% | 1011.8 hPa | 0 mm | 0 m/s | 13 W/m² | - |
| 1778024502 | 24.44° C | 37% | 1011.5 hPa | 0 mm | 0.89 m/s, 15° | 17 W/m² | - |
| 1778024199 | 24.44° C | 36% | 1011.4 hPa | 0 mm | 0.45 m/s, 33° | 22 W/m² | - |
| 1778023897 | 25° C | 36% | 1011.5 hPa | 0 mm | 0.89 m/s, 25° | 27 W/m² | - |
| 1778023594 | 25° C | 37% | 1011.5 hPa | 0 mm | 0.89 m/s, 46° | 36 W/m² | - |
| 1778023292 | 25° C | 37% | 1011.5 hPa | 0 mm | 0.45 m/s, 61° | 49 W/m² | - |
| 1778022988 | 25° C | 37% | 1011.5 hPa | 0 mm | 0.89 m/s, 229° | 61 W/m² | - |
| 1778022687 | 25.56° C | 38% | 1011.3 hPa | 0 mm | 0.89 m/s, 288° | 61 W/m² | - |
| 1778022385 | 25.56° C | 37% | 1011.5 hPa | 0 mm | 0.45 m/s, 192° | 59 W/m² | - |
| 1778022081 | 25.56° C | 39% | 1011.7 hPa | 0 mm | 0 m/s | 73 W/m² | - |
| 1778021777 | 25.56° C | 37% | 1011.6 hPa | 0 mm | 0.89 m/s, 84° | 69 W/m² | - |
| 1778021474 | 25.56° C | 37% | 1011.7 hPa | 0 mm | 0 m/s | 50 W/m² | - |
| 1778021170 | 25.56° C | 36% | 1011.6 hPa | 0 mm | 0.89 m/s, 144° | 68 W/m² | - |
| 1778020868 | 26.11° C | 36% | 1011.7 hPa | 0 mm | 0.89 m/s, 322° | 50 W/m² | - |
| 1778020565 | 26.67° C | 34% | 1011.6 hPa | 0 mm | 2.24 m/s, 51° | 121 W/m² | - |
| 1778020261 | 26.67° C | 34% | 1011.7 hPa | 0 mm | 1.79 m/s, 28° | 175 W/m² | - |
* Rain latest hour (hover to see other rain measurements)
** Current wind speed in m/s (hover to see current wind gust speed)